createdAt,value
2024-02-03T00:00:26.260Z,56.70
2024-02-03T00:01:27.139Z,63.60
2024-02-03T00:02:27.987Z,53.20
2024-02-03T00:03:28.882Z,58.90
2024-02-03T00:04:29.772Z,52.80
2024-02-03T00:05:30.766Z,57.80
2024-02-03T00:06:31.216Z,60.30
2024-02-03T00:07:32.099Z,52.90
2024-02-03T00:08:32.990Z,58.30
2024-02-03T00:09:33.848Z,59.00
2024-02-03T00:10:34.784Z,51.80
2024-02-03T00:11:35.670Z,55.50
2024-02-03T00:12:36.559Z,52.90
2024-02-03T00:13:37.436Z,48.30
2024-02-03T00:14:38.315Z,55.50
2024-02-03T00:15:39.381Z,46.90
2024-02-03T00:16:39.728Z,55.40
2024-02-03T00:17:40.680Z,57.00
2024-02-03T00:18:41.635Z,57.40
2024-02-03T00:19:42.585Z,57.30
2024-02-03T00:20:43.035Z,60.20
2024-02-03T00:21:43.995Z,54.20
2024-02-03T00:22:44.857Z,51.00
2024-02-03T00:23:45.762Z,49.60
2024-02-03T00:24:46.768Z,49.20
2024-02-03T00:25:47.266Z,42.20
2024-02-03T00:26:47.648Z,43.10
2024-02-03T00:27:48.685Z,56.50
2024-02-03T00:28:49.096Z,57.40
2024-02-03T00:29:49.974Z,56.00
2024-02-03T00:30:50.976Z,49.90
2024-02-03T00:31:51.363Z,52.90
2024-02-03T00:32:52.280Z,49.70
2024-02-03T00:33:53.164Z,54.90
2024-02-03T00:34:54.259Z,45.70
2024-02-03T00:35:54.729Z,50.60
2024-02-03T00:36:55.615Z,49.10
2024-02-03T00:37:56.493Z,50.20
2024-02-03T00:38:57.399Z,49.00
2024-02-03T00:39:58.276Z,52.40
2024-02-03T00:40:59.172Z,56.20
2024-02-03T00:42:00.112Z,52.20
2024-02-03T00:43:01.010Z,48.50
2024-02-03T00:44:01.861Z,52.00
2024-02-03T00:45:02.732Z,47.00
2024-02-03T00:46:03.654Z,53.10
2024-02-03T00:47:04.534Z,52.00
2024-02-03T00:48:05.682Z,42.00
2024-02-03T00:49:06.335Z,51.00
2024-02-03T00:50:06.789Z,56.30
2024-02-03T00:51:07.832Z,52.20
2024-02-03T00:52:08.190Z,55.70
2024-02-03T00:53:09.053Z,50.60
2024-02-03T00:54:09.985Z,48.00
2024-02-03T00:55:10.827Z,52.40
2024-02-03T00:56:11.738Z,53.10
2024-02-03T00:57:12.624Z,52.30
2024-02-03T00:58:13.497Z,55.10
2024-02-03T00:59:14.375Z,59.00
2024-02-03T01:00:15.295Z,55.00
2024-02-03T01:01:16.240Z,54.10
2024-02-03T01:02:17.091Z,50.70
2024-02-03T01:03:18.052Z,54.70
2024-02-03T01:04:19.028Z,57.50
2024-02-03T01:05:19.903Z,56.20
2024-02-03T01:06:20.823Z,58.10
2024-02-03T01:07:21.698Z,57.10
2024-02-03T01:08:22.568Z,48.00
2024-02-03T01:09:23.511Z,53.60
2024-02-03T01:10:24.334Z,53.70
2024-02-03T01:11:25.366Z,59.10
2024-02-03T01:12:25.822Z,54.50
2024-02-03T01:13:26.378Z,54.10
2024-02-03T01:14:27.230Z,55.70
2024-02-03T01:15:28.177Z,58.90
2024-02-03T01:16:29.047Z,58.60
2024-02-03T01:17:29.989Z,58.00
2024-02-03T01:18:31.001Z,60.70
2024-02-03T01:19:31.682Z,58.00
2024-02-03T01:20:32.212Z,58.60
2024-02-03T01:21:33.128Z,57.90
2024-02-03T01:22:33.978Z,55.60
2024-02-03T01:23:34.862Z,59.00
2024-02-03T01:24:35.812Z,61.50
2024-02-03T01:25:36.646Z,55.90
2024-02-03T01:26:37.556Z,57.70
2024-02-03T01:27:38.448Z,53.60
2024-02-03T01:28:39.314Z,51.70
2024-02-03T01:29:40.205Z,55.00
2024-02-03T01:30:41.098Z,57.00
2024-02-03T01:31:42.116Z,58.80
2024-02-03T01:32:42.519Z,50.80
2024-02-03T01:33:43.439Z,57.50
2024-02-03T01:34:44.393Z,55.70
2024-02-03T01:35:44.805Z,59.10
2024-02-03T01:36:45.802Z,58.90
2024-02-03T01:37:46.175Z,53.90
2024-02-03T01:38:47.053Z,52.40
2024-02-03T01:39:48.014Z,51.50
2024-02-03T01:40:48.898Z,53.20
2024-02-03T01:41:49.897Z,55.90
2024-02-03T01:42:50.375Z,54.10
2024-02-03T01:43:51.211Z,56.40
2024-02-03T01:44:52.100Z,58.50
2024-02-03T01:45:53.069Z,60.80
2024-02-03T01:46:53.975Z,63.90
2024-02-03T01:47:54.885Z,65.40
2024-02-03T01:48:55.783Z,64.80
2024-02-03T01:49:56.735Z,73.10
2024-02-03T01:50:57.602Z,80.20
2024-02-03T01:51:58.701Z,72.10
2024-02-03T01:52:59.086Z,70.50
2024-02-03T01:53:59.970Z,67.80
2024-02-03T01:55:00.920Z,71.00
2024-02-03T01:56:01.761Z,78.00
2024-02-03T01:57:02.781Z,73.40
2024-02-03T01:58:03.337Z,69.00
2024-02-03T01:59:04.194Z,74.80
2024-02-03T02:00:05.169Z,74.00
2024-02-03T02:02:54.584Z,98.50
2024-02-03T02:03:55.456Z,69.90
2024-02-03T02:04:56.305Z,91.10
2024-02-03T02:05:57.218Z,82.10
2024-02-03T02:06:58.137Z,80.90
2024-02-03T02:07:59.142Z,85.30
2024-02-03T02:08:59.512Z,99.60
2024-02-03T02:10:00.437Z,86.50
2024-02-03T02:11:01.338Z,76.70
2024-02-03T02:12:02.244Z,94.10
2024-02-03T02:13:03.226Z,95.20
2024-02-03T02:14:03.601Z,88.40
2024-02-03T02:15:04.324Z,105.90
2024-02-03T02:16:05.179Z,102.40
2024-02-03T02:17:06.062Z,105.60
2024-02-03T02:18:07.113Z,102.60
2024-02-03T02:20:28.106Z,92.60
2024-02-03T02:21:28.991Z,87.20
2024-02-03T02:22:29.855Z,93.10
2024-02-03T02:23:30.883Z,127.30
2024-02-03T02:24:31.271Z,92.20
2024-02-03T02:25:32.173Z,118.40
2024-02-03T02:26:33.086Z,112.20
2024-02-03T02:27:34.004Z,107.60
2024-02-03T02:28:34.571Z,93.80
2024-02-03T02:29:34.958Z,113.70
2024-02-03T02:30:35.869Z,94.70
2024-02-03T02:31:36.722Z,97.60
2024-02-03T02:32:37.658Z,83.70
2024-02-03T02:33:38.788Z,89.30
2024-02-03T02:34:39.252Z,91.60
2024-02-03T02:35:40.116Z,101.80
2024-02-03T02:36:41.085Z,95.80
2024-02-03T02:37:41.979Z,100.40
2024-02-03T02:38:42.886Z,111.90
2024-02-03T02:39:43.779Z,98.70
2024-02-03T02:40:44.656Z,101.90
2024-02-03T02:41:45.548Z,87.60
2024-02-03T02:42:46.446Z,96.60
2024-02-03T02:43:47.464Z,91.00
2024-02-03T02:44:47.842Z,100.80
2024-02-03T02:45:48.960Z,110.00
2024-02-03T02:46:49.327Z,89.30
2024-02-03T02:47:50.274Z,91.50
2024-02-03T02:48:51.394Z,98.90
2024-02-03T02:49:51.813Z,91.70
2024-02-03T02:50:52.658Z,111.60
2024-02-03T02:51:53.573Z,105.90
2024-02-03T02:52:54.474Z,102.00
2024-02-03T02:53:55.558Z,107.80
2024-02-03T02:54:55.977Z,116.00
2024-02-03T02:55:58.981Z,110.00
2024-02-03T02:56:57.545Z,93.50
2024-02-03T02:57:58.413Z,114.90
2024-02-03T02:58:59.454Z,110.40
2024-02-03T02:59:59.813Z,115.90
2024-02-03T03:01:00.828Z,115.80
2024-02-03T03:02:01.691Z,105.80
2024-02-03T03:03:02.554Z,117.40
2024-02-03T03:04:03.622Z,123.50
2024-02-03T03:05:04.007Z,112.20
2024-02-03T03:06:04.885Z,139.90
2024-02-03T03:07:05.766Z,135.70
2024-02-03T03:08:06.687Z,128.30
2024-02-03T03:09:07.603Z,119.90
2024-02-03T03:10:08.446Z,126.40
2024-02-03T03:11:09.325Z,137.50
2024-02-03T03:12:10.269Z,141.40
2024-02-03T03:13:11.102Z,128.50
2024-02-03T03:14:12.004Z,125.10
2024-02-03T03:15:12.911Z,94.40
2024-02-03T03:16:13.763Z,121.50
2024-02-03T03:17:14.656Z,142.70
2024-02-03T03:18:15.754Z,148.20
2024-02-03T03:19:16.392Z,144.30
2024-02-03T03:20:16.820Z,141.10
2024-02-03T03:21:17.721Z,149.80
2024-02-03T03:22:18.589Z,152.30
2024-02-03T03:23:19.467Z,122.40
2024-02-03T03:24:20.506Z,164.50
2024-02-03T03:25:20.890Z,153.40
2024-02-03T03:26:21.752Z,163.10
2024-02-03T03:27:22.714Z,157.00
2024-02-03T03:28:23.568Z,158.90
2024-02-03T03:29:24.605Z,133.50
2024-02-03T03:30:25.006Z,131.60
2024-02-03T03:31:25.869Z,116.80
2024-02-03T03:32:26.787Z,131.90
2024-02-03T03:33:27.761Z,143.00
2024-02-03T03:34:28.347Z,136.20
2024-02-03T03:35:28.722Z,135.70
2024-02-03T03:36:29.660Z,115.10
2024-02-03T03:37:30.514Z,147.20
2024-02-03T03:38:31.388Z,140.70
2024-02-03T03:39:32.521Z,104.40
2024-02-03T03:40:32.850Z,141.70
2024-02-03T03:41:33.719Z,115.70
2024-02-03T03:42:34.695Z,121.90
2024-02-03T03:43:35.539Z,107.10
2024-02-03T03:44:36.441Z,125.80
2024-02-03T03:45:37.327Z,120.70
2024-02-03T03:46:38.203Z,115.00
2024-02-03T03:47:39.089Z,118.00
2024-02-03T03:48:40.093Z,134.50
2024-02-03T03:49:40.755Z,123.90
2024-02-03T03:50:41.104Z,105.30
2024-02-03T03:51:42.037Z,93.80
2024-02-03T03:52:42.907Z,107.10
2024-02-03T03:53:43.781Z,116.10
2024-02-03T03:54:47.331Z,92.30
2024-02-03T03:55:45.394Z,98.30
2024-02-03T03:56:46.269Z,134.30
2024-02-03T03:57:47.363Z,107.50
2024-02-03T03:58:47.763Z,89.20
2024-02-03T03:59:48.790Z,105.50
2024-02-03T04:00:49.364Z,97.20
2024-02-03T04:01:49.741Z,82.60
2024-02-03T04:02:50.637Z,116.30
2024-02-03T04:03:51.565Z,101.10
2024-02-03T04:04:52.536Z,107.00
2024-02-03T04:05:53.376Z,101.50
2024-02-03T04:06:54.283Z,87.30
2024-02-03T04:07:55.146Z,85.70
2024-02-03T04:08:56.041Z,84.70
2024-02-03T04:09:56.962Z,82.30
2024-02-03T04:10:57.824Z,77.30
2024-02-03T04:11:58.703Z,77.30
2024-02-03T04:12:59.692Z,81.70
2024-02-03T04:14:00.168Z,89.10
2024-02-03T04:15:01.178Z,94.40
2024-02-03T04:16:01.552Z,82.50
2024-02-03T04:17:02.495Z,85.70
2024-02-03T04:18:03.348Z,97.70
2024-02-03T04:19:04.472Z,78.80
2024-02-03T04:20:05.242Z,70.00
2024-02-03T04:21:05.743Z,76.00
2024-02-03T04:22:06.614Z,93.90
2024-02-03T04:23:07.493Z,77.40
2024-02-03T04:24:08.427Z,82.20
2024-02-03T04:25:09.409Z,74.10
2024-02-03T04:26:09.787Z,72.50
2024-02-03T04:27:10.765Z,65.90
2024-02-03T04:28:11.670Z,67.00
2024-02-03T04:29:12.520Z,60.70
2024-02-03T04:30:22.506Z,66.80
2024-02-03T04:31:15.210Z,65.90
2024-02-03T04:32:15.059Z,70.60
2024-02-03T04:33:16.004Z,63.30
2024-02-03T04:34:16.989Z,63.00
2024-02-03T04:35:17.860Z,73.50
2024-02-03T04:36:18.950Z,60.00
2024-02-03T04:37:19.356Z,60.90
2024-02-03T04:38:20.231Z,66.00
2024-02-03T04:39:21.187Z,64.30
2024-02-03T04:40:22.171Z,78.90
2024-02-03T04:41:22.547Z,59.80
2024-02-03T04:42:23.470Z,61.40
2024-02-03T04:43:24.335Z,65.50
2024-02-03T04:44:25.187Z,77.50
2024-02-03T04:45:26.255Z,68.80
2024-02-03T04:46:26.649Z,60.00
2024-02-03T04:47:27.575Z,65.50
2024-02-03T04:48:28.493Z,68.10
2024-02-03T04:49:29.475Z,62.40
2024-02-03T04:50:30.512Z,57.40
2024-02-03T04:51:30.958Z,63.30
2024-02-03T04:52:31.808Z,67.20
2024-02-03T04:53:32.681Z,59.70
2024-02-03T04:54:33.571Z,79.80
2024-02-03T04:55:34.491Z,63.70
2024-02-03T04:56:35.379Z,78.10
2024-02-03T04:57:36.295Z,63.90
2024-02-03T04:58:37.157Z,85.40
2024-02-03T04:59:38.004Z,79.40
2024-02-03T05:00:38.964Z,76.80
2024-02-03T05:01:39.851Z,74.40
2024-02-03T05:02:40.691Z,70.00
2024-02-03T05:03:41.680Z,76.10
2024-02-03T05:04:42.691Z,75.10
2024-02-03T05:05:43.233Z,69.40
2024-02-03T05:06:43.661Z,69.20
2024-02-03T05:07:44.599Z,70.00
2024-02-03T05:08:47.422Z,74.50
2024-02-03T05:09:46.076Z,66.60
2024-02-03T05:10:47.100Z,70.80
2024-02-03T05:11:47.473Z,78.80
2024-02-03T05:12:48.506Z,57.60
2024-02-03T05:13:48.895Z,75.70
2024-02-03T05:14:49.746Z,75.50
2024-02-03T05:15:50.697Z,64.70
2024-02-03T05:16:51.543Z,82.00
2024-02-03T05:17:52.502Z,73.60
2024-02-03T05:18:53.473Z,78.20
2024-02-03T05:19:54.384Z,75.60
2024-02-03T05:20:55.390Z,78.60
2024-02-03T05:21:55.807Z,83.10
2024-02-03T05:22:56.645Z,73.70
2024-02-03T05:23:57.524Z,74.60
2024-02-03T05:24:58.419Z,74.40
2024-02-03T05:25:59.319Z,74.50
2024-02-03T05:27:00.213Z,72.80
2024-02-03T05:28:01.068Z,63.90
2024-02-03T05:29:01.986Z,66.20
2024-02-03T05:30:02.833Z,64.00
2024-02-03T05:31:03.731Z,68.50
2024-02-03T05:32:04.610Z,75.30
2024-02-03T05:33:05.563Z,82.30
2024-02-03T05:34:06.109Z,71.60
2024-02-03T05:35:06.507Z,68.60
2024-02-03T05:36:07.535Z,67.40
2024-02-03T05:37:07.903Z,71.00
2024-02-03T05:38:08.773Z,59.60
2024-02-03T05:39:09.801Z,67.60
2024-02-03T05:40:10.263Z,67.40
2024-02-03T05:41:11.184Z,70.10
2024-02-03T05:42:12.087Z,64.60
2024-02-03T05:43:12.941Z,67.20
2024-02-03T05:44:13.842Z,74.50
2024-02-03T05:45:14.710Z,66.80
2024-02-03T05:46:15.717Z,70.50
2024-02-03T05:47:16.096Z,79.30
2024-02-03T05:48:17.043Z,79.00
2024-02-03T05:49:18.009Z,79.90
2024-02-03T05:50:18.853Z,85.20
2024-02-03T05:51:20.014Z,84.90
2024-02-03T05:52:20.344Z,100.00
2024-02-03T05:53:21.239Z,93.40
2024-02-03T05:54:22.109Z,81.10
2024-02-03T05:55:22.994Z,81.50
2024-02-03T05:56:23.903Z,95.00
2024-02-03T05:57:24.806Z,84.00
2024-02-03T05:58:25.661Z,87.10
2024-02-03T05:59:35.639Z,89.10
2024-02-03T06:00:28.347Z,78.60
2024-02-03T06:01:28.391Z,85.70
2024-02-03T06:02:28.721Z,91.00
2024-02-03T06:03:29.718Z,107.70
2024-02-03T06:04:30.243Z,96.90
2024-02-03T06:05:30.646Z,104.90
2024-02-03T06:06:32.374Z,93.60
2024-02-03T06:07:32.462Z,100.90
2024-02-03T06:08:32.818Z,99.60
2024-02-03T06:09:33.729Z,93.80
2024-02-03T06:10:34.630Z,78.30
2024-02-03T06:11:35.626Z,105.10
2024-02-03T06:12:36.064Z,99.80
2024-02-03T06:13:36.903Z,91.50
2024-02-03T06:14:37.797Z,98.70
2024-02-03T06:15:38.681Z,93.80
2024-02-03T06:16:39.567Z,108.30
2024-02-03T06:17:40.490Z,95.20
2024-02-03T06:18:41.365Z,103.70
2024-02-03T06:19:44.181Z,104.40
2024-02-03T06:20:43.027Z,110.90
2024-02-03T06:21:43.998Z,88.90
2024-02-03T06:22:44.860Z,104.00
2024-02-03T06:23:45.739Z,103.30
2024-02-03T06:24:46.725Z,86.80
2024-02-03T06:25:47.115Z,104.50
2024-02-03T06:26:48.140Z,100.80
2024-02-03T06:27:48.613Z,116.10
2024-02-03T06:28:49.496Z,112.90
2024-02-03T06:29:50.416Z,110.60
2024-02-03T06:30:51.385Z,110.30
2024-02-03T06:31:52.313Z,105.40
2024-02-03T06:32:53.261Z,111.10
2024-02-03T06:33:54.345Z,110.50
2024-02-03T06:34:55.017Z,90.30
2024-02-03T06:35:55.481Z,102.40
2024-02-03T06:36:56.576Z,99.70
2024-02-03T06:37:56.911Z,103.80
2024-02-03T06:38:57.793Z,102.20
2024-02-03T06:39:58.691Z,95.60
2024-02-03T06:40:59.556Z,117.00
2024-02-03T06:42:00.571Z,109.00
2024-02-03T06:43:00.954Z,96.50
2024-02-03T06:44:01.831Z,108.00
2024-02-03T06:45:02.799Z,117.50
2024-02-03T06:46:03.668Z,119.30
2024-02-03T06:47:04.584Z,118.90
2024-02-03T06:48:05.524Z,115.60
2024-02-03T06:49:06.481Z,107.50
2024-02-03T06:50:07.335Z,115.20
2024-02-03T06:51:08.212Z,127.40
2024-02-03T06:52:09.128Z,109.30
2024-02-03T06:53:10.020Z,124.30
2024-02-03T06:54:10.928Z,124.00
2024-02-03T06:55:11.765Z,121.70
2024-02-03T06:56:12.651Z,111.60
2024-02-03T06:57:13.708Z,115.10
2024-02-03T06:58:14.043Z,113.00
2024-02-03T06:59:14.924Z,120.40
2024-02-03T07:00:15.934Z,112.70
2024-02-03T07:01:16.896Z,103.20
2024-02-03T07:02:17.309Z,105.20
2024-02-03T07:03:18.217Z,103.90
2024-02-03T07:04:19.231Z,108.00
2024-02-03T07:05:19.629Z,117.80
2024-02-03T07:06:20.644Z,102.70
2024-02-03T07:07:21.165Z,102.90
2024-02-03T07:08:22.018Z,92.10
2024-02-03T07:09:22.914Z,99.10
2024-02-03T07:10:23.954Z,101.90
2024-02-03T07:11:24.284Z,102.30
2024-02-03T07:12:25.262Z,115.60
2024-02-03T07:13:26.109Z,107.70
2024-02-03T07:14:27.003Z,109.50
2024-02-03T07:15:28.323Z,112.20
2024-02-03T07:16:28.715Z,110.50
2024-02-03T07:17:29.687Z,103.40
2024-02-03T07:18:30.765Z,94.70
2024-02-03T07:19:31.429Z,95.40
2024-02-03T07:20:31.832Z,104.90
2024-02-03T07:21:32.893Z,109.00
2024-02-03T07:22:33.399Z,103.60
2024-02-03T07:23:33.786Z,110.00
2024-02-03T07:24:34.679Z,101.80
2024-02-03T07:25:35.546Z,120.60
2024-02-03T07:26:36.420Z,120.40
2024-02-03T07:27:37.407Z,119.70
2024-02-03T07:28:38.293Z,113.30
2024-02-03T07:29:39.186Z,112.90
2024-02-03T07:30:40.115Z,115.50
2024-02-03T07:31:40.964Z,104.90
2024-02-03T07:32:41.889Z,112.40
2024-02-03T07:33:42.926Z,117.70
2024-02-03T07:34:43.537Z,112.40
2024-02-03T07:35:44.196Z,112.50
2024-02-03T07:36:44.701Z,115.80
2024-02-03T07:37:45.598Z,100.50
2024-02-03T07:38:46.472Z,102.00
2024-02-03T07:39:47.468Z,77.50
2024-02-03T07:40:47.885Z,87.40
2024-02-03T07:41:48.760Z,117.70
2024-02-03T07:42:49.923Z,96.00
2024-02-03T07:43:50.321Z,91.70
2024-02-03T07:44:51.180Z,93.00
2024-02-03T07:45:52.133Z,91.20
2024-02-03T07:46:52.953Z,85.40
2024-02-03T07:47:53.910Z,82.10
2024-02-03T07:48:54.981Z,88.60
2024-02-03T07:49:55.527Z,71.80
2024-02-03T07:50:55.920Z,76.30
2024-02-03T07:52:00.352Z,77.00
2024-02-03T07:52:58.611Z,77.20
2024-02-03T07:53:58.485Z,72.40
2024-02-03T07:54:59.433Z,76.10
2024-02-03T07:56:00.280Z,83.10
2024-02-03T07:57:01.172Z,81.20
2024-02-03T07:58:02.278Z,74.70
2024-02-03T07:59:02.648Z,69.40
2024-02-03T08:00:03.527Z,75.90
2024-02-03T08:01:04.555Z,75.10
2024-02-03T08:02:04.944Z,74.70
2024-02-03T08:03:05.847Z,89.70
2024-02-03T08:04:06.492Z,86.10
2024-02-03T08:05:07.021Z,80.10
2024-02-03T08:06:07.961Z,94.30
2024-02-03T08:07:08.931Z,88.30
2024-02-03T08:08:09.874Z,82.00
2024-02-03T08:09:10.776Z,76.60
2024-02-03T08:10:11.623Z,78.90
2024-02-03T08:11:12.515Z,78.20
2024-02-03T08:12:13.422Z,93.00
2024-02-03T08:13:14.404Z,79.20
2024-02-03T08:14:14.807Z,75.10
2024-02-03T08:15:15.691Z,82.00
2024-02-03T08:16:16.616Z,76.00
2024-02-03T08:17:17.453Z,88.00
2024-02-03T08:18:18.478Z,80.40
2024-02-03T08:19:19.240Z,84.60
2024-02-03T08:20:20.160Z,76.30
2024-02-03T08:21:21.128Z,81.10
2024-02-03T08:22:22.005Z,82.80
2024-02-03T08:23:22.923Z,70.30
2024-02-03T08:24:23.855Z,70.80
2024-02-03T08:25:24.709Z,78.10
2024-02-03T08:26:25.586Z,76.60
2024-02-03T08:27:26.473Z,75.60
2024-02-03T08:28:27.484Z,74.90
2024-02-03T08:29:27.885Z,62.20
2024-02-03T08:30:28.825Z,64.00
2024-02-03T08:31:29.718Z,69.10
2024-02-03T08:32:30.583Z,58.30
2024-02-03T08:33:31.604Z,62.40
2024-02-03T08:34:32.129Z,70.80
2024-02-03T08:35:32.772Z,74.10
2024-02-03T08:36:33.222Z,67.50
2024-02-03T08:37:34.084Z,58.70
2024-02-03T08:38:35.000Z,64.70
2024-02-03T08:40:36.728Z,57.10
2024-02-03T08:41:37.611Z,60.20
2024-02-03T08:42:38.545Z,59.80
2024-02-03T08:43:39.538Z,59.10
2024-02-03T08:44:39.912Z,58.90
2024-02-03T08:45:40.827Z,59.90
2024-02-03T08:46:41.736Z,63.50
2024-02-03T08:47:42.689Z,56.00
2024-02-03T08:48:43.699Z,65.40
2024-02-03T08:49:44.151Z,61.70
2024-02-03T08:50:45.017Z,51.30
2024-02-03T08:51:45.928Z,59.40
2024-02-03T08:52:46.788Z,55.80
2024-02-03T08:53:47.825Z,56.10
2024-02-03T08:54:48.234Z,60.10
2024-02-03T08:55:49.098Z,56.10
2024-02-03T08:56:49.970Z,56.50
2024-02-03T08:57:50.866Z,50.90
2024-02-03T08:58:51.768Z,54.20
2024-02-03T08:59:52.672Z,54.10
2024-02-03T09:00:53.655Z,51.00
2024-02-03T09:01:54.561Z,51.50
2024-02-03T09:02:55.415Z,51.70
2024-02-03T09:03:56.409Z,52.10
2024-02-03T09:04:57.307Z,51.20
2024-02-03T09:05:58.239Z,49.00
2024-02-03T09:06:59.139Z,50.50
2024-02-03T09:07:59.988Z,50.40
2024-02-03T09:09:00.995Z,46.30
2024-02-03T09:10:01.901Z,45.70
2024-02-03T09:11:01.899Z,48.10
2024-02-03T09:12:02.774Z,45.20
2024-02-03T09:13:03.651Z,43.60
2024-02-03T09:14:04.831Z,50.80
2024-02-03T09:15:05.187Z,51.80
2024-02-03T09:16:06.073Z,51.80
2024-02-03T09:17:06.981Z,45.20
2024-02-03T09:18:08.020Z,45.40
2024-02-03T09:19:08.827Z,48.30
2024-02-03T09:20:09.412Z,49.80
2024-02-03T09:21:09.844Z,46.10
2024-02-03T09:22:10.722Z,48.80
2024-02-03T09:23:11.602Z,45.10
2024-02-03T09:24:12.581Z,43.80
2024-02-03T09:25:13.791Z,45.00
2024-02-03T09:26:14.160Z,43.50
2024-02-03T09:27:15.082Z,48.30
2024-02-03T09:28:15.938Z,49.90
2024-02-03T09:29:16.967Z,47.30
2024-02-03T09:30:17.388Z,47.00
2024-02-03T09:31:18.220Z,48.20
2024-02-03T09:32:19.130Z,48.30
2024-02-03T09:33:20.160Z,46.00
2024-02-03T09:34:20.767Z,52.00
2024-02-03T09:35:21.163Z,49.90
2024-02-03T09:36:22.075Z,42.10
2024-02-03T09:38:23.778Z,50.00
2024-02-03T09:39:24.722Z,41.30
2024-02-03T09:40:25.597Z,45.40
2024-02-03T09:41:26.471Z,45.50
2024-02-03T09:42:27.514Z,42.80
2024-02-03T09:43:27.887Z,48.50
2024-02-03T09:44:28.775Z,43.40
2024-02-03T09:45:29.706Z,40.30
2024-02-03T09:46:30.550Z,43.40
2024-02-03T09:47:31.508Z,44.50
2024-02-03T09:48:32.591Z,43.80
2024-02-03T09:49:33.234Z,43.70
2024-02-03T09:50:33.684Z,41.40
2024-02-03T09:51:34.655Z,43.50
2024-02-03T09:52:35.548Z,44.90
2024-02-03T09:53:36.424Z,40.40
2024-02-03T09:54:37.336Z,41.00
2024-02-03T09:55:38.221Z,43.50
2024-02-03T09:56:39.085Z,43.20
2024-02-03T09:57:40.081Z,39.50
2024-02-03T09:58:42.770Z,39.50
2024-02-03T09:59:41.451Z,40.40
2024-02-03T10:00:42.385Z,44.10
2024-02-03T10:01:43.310Z,41.00
2024-02-03T10:02:44.220Z,42.30
2024-02-03T10:03:45.175Z,40.30
2024-02-03T10:04:46.081Z,42.90
2024-02-03T10:05:46.971Z,40.50
2024-02-03T10:06:47.885Z,39.80
2024-02-03T10:07:48.924Z,36.90
2024-02-03T10:08:49.303Z,41.70
2024-02-03T10:10:51.916Z,36.80
2024-02-03T10:11:51.827Z,36.50
2024-02-03T10:12:52.471Z,36.30
2024-02-03T10:13:52.847Z,39.50
2024-02-03T10:14:53.799Z,39.60
2024-02-03T10:15:54.701Z,39.00
2024-02-03T10:16:55.551Z,39.50
2024-02-03T10:17:56.525Z,36.10
2024-02-03T10:18:57.434Z,38.80
2024-02-03T10:19:58.354Z,40.70
2024-02-03T10:20:59.211Z,36.80
2024-02-03T10:22:00.275Z,36.70
2024-02-03T10:23:00.875Z,35.90
2024-02-03T10:24:01.246Z,37.50
2024-02-03T10:25:02.214Z,37.30
2024-02-03T10:26:03.216Z,34.70
2024-02-03T10:27:04.081Z,39.00
2024-02-03T10:28:05.404Z,38.50
2024-02-03T10:29:05.815Z,36.50
2024-02-03T10:30:06.710Z,38.10
2024-02-03T10:31:07.688Z,38.60
2024-02-03T10:32:08.583Z,35.40
2024-02-03T10:33:09.696Z,38.60
2024-02-03T10:34:10.141Z,38.40
2024-02-03T10:35:11.050Z,39.90
2024-02-03T10:36:11.982Z,37.10
2024-02-03T10:37:12.869Z,37.00
2024-02-03T10:38:13.875Z,38.20
2024-02-03T10:39:14.293Z,39.70
2024-02-03T10:40:15.184Z,37.60
2024-02-03T10:41:16.067Z,38.10
2024-02-03T10:42:16.988Z,37.30
2024-02-03T10:43:18.005Z,37.40
2024-02-03T10:44:18.387Z,37.80
2024-02-03T10:45:19.368Z,39.00
2024-02-03T10:46:20.215Z,34.50
2024-02-03T10:47:21.083Z,36.50
2024-02-03T10:48:22.289Z,34.70
2024-02-03T10:49:22.875Z,37.60
2024-02-03T10:50:23.717Z,34.20
2024-02-03T10:51:24.160Z,34.60
2024-02-03T10:52:25.027Z,33.00
2024-02-03T10:53:26.002Z,35.20
2024-02-03T10:54:26.503Z,37.50
2024-02-03T10:55:27.358Z,33.30
2024-02-03T10:56:28.233Z,36.90
2024-02-03T10:57:29.154Z,34.30
2024-02-03T10:58:30.040Z,34.90
2024-02-03T10:59:30.922Z,35.80
2024-02-03T11:00:31.836Z,36.40
2024-02-03T11:01:32.710Z,37.00
2024-02-03T11:02:33.588Z,37.00
2024-02-03T11:03:34.713Z,35.20
2024-02-03T11:04:35.124Z,33.90
2024-02-03T11:05:35.991Z,38.00
2024-02-03T11:06:36.912Z,35.30
2024-02-03T11:07:37.758Z,32.00
2024-02-03T11:08:38.786Z,34.90
2024-02-03T11:09:39.184Z,34.80
2024-02-03T11:10:40.055Z,34.20
2024-02-03T11:11:40.927Z,32.60
2024-02-03T11:12:41.831Z,34.00
2024-02-03T11:13:42.834Z,34.80
2024-02-03T11:14:43.365Z,37.40
2024-02-03T11:15:44.262Z,35.50
2024-02-03T11:16:45.129Z,32.40
2024-02-03T11:17:46.083Z,35.70
2024-02-03T11:18:47.107Z,36.30
2024-02-03T11:19:47.915Z,36.00
2024-02-03T11:20:48.448Z,35.80
2024-02-03T11:21:49.353Z,39.10
2024-02-03T11:22:50.209Z,35.90
2024-02-03T11:23:51.214Z,36.80
2024-02-03T11:24:51.635Z,34.60
2024-02-03T11:25:52.470Z,37.40
2024-02-03T11:26:53.350Z,35.40
2024-02-03T11:27:54.280Z,36.20
2024-02-03T11:28:56.112Z,37.80
2024-02-03T11:29:55.859Z,39.20
2024-02-03T11:30:56.799Z,36.50
2024-02-03T11:31:57.700Z,36.20
2024-02-03T11:32:58.564Z,37.20
2024-02-03T11:33:59.626Z,34.20
2024-02-03T11:35:00.928Z,35.50
2024-02-03T11:36:00.962Z,38.10
2024-02-03T11:37:01.926Z,35.70
2024-02-03T11:38:02.516Z,35.60
2024-02-03T11:39:03.543Z,36.60
2024-02-03T11:40:03.904Z,36.40
2024-02-03T11:41:04.786Z,36.40
2024-02-03T11:42:05.666Z,32.80
2024-02-03T11:43:06.543Z,35.40
2024-02-03T11:44:07.575Z,32.60
2024-02-03T11:45:07.953Z,36.90
2024-02-03T11:46:08.832Z,38.00
2024-02-03T11:47:09.809Z,35.60
2024-02-03T11:48:10.331Z,35.10
2024-02-03T11:49:11.452Z,34.20
2024-02-03T11:50:11.842Z,32.80
2024-02-03T11:51:12.823Z,34.00
2024-02-03T11:52:13.694Z,34.50
2024-02-03T11:53:14.573Z,33.70
2024-02-03T11:54:15.614Z,35.00
2024-02-03T11:55:15.973Z,38.30
2024-02-03T11:56:16.852Z,33.30
2024-02-03T11:57:17.792Z,36.80
2024-02-03T11:58:18.633Z,36.80
2024-02-03T11:59:19.543Z,34.30
2024-02-03T12:00:20.438Z,36.70
2024-02-03T12:01:21.309Z,38.10
2024-02-03T12:02:22.177Z,36.10
2024-02-03T12:03:23.245Z,38.60
2024-02-03T12:04:23.867Z,38.50
2024-02-03T12:05:24.379Z,39.20
2024-02-03T12:06:25.262Z,34.00
2024-02-03T12:07:26.186Z,36.60
2024-02-03T12:08:26.622Z,36.10
2024-02-03T12:09:27.584Z,33.70
2024-02-03T12:10:28.436Z,33.10
2024-02-03T12:11:29.307Z,37.00
2024-02-03T12:12:30.231Z,35.00
2024-02-03T12:13:31.068Z,30.90
2024-02-03T12:14:31.985Z,28.90
2024-02-03T12:15:32.871Z,33.40
2024-02-03T12:16:33.759Z,33.40
2024-02-03T12:17:34.683Z,30.20
2024-02-03T12:18:35.261Z,33.10
2024-02-03T12:19:36.020Z,31.70
2024-02-03T12:20:36.399Z,34.10
2024-02-03T12:21:37.321Z,30.10
2024-02-03T12:22:38.182Z,29.90
2024-02-03T12:23:39.058Z,30.70
2024-02-03T12:24:39.995Z,30.40
2024-02-03T12:25:40.871Z,28.00
2024-02-03T12:26:41.754Z,30.00
2024-02-03T12:27:42.688Z,28.50
2024-02-03T12:28:43.596Z,28.40
2024-02-03T12:29:44.624Z,29.20
2024-02-03T12:30:45.019Z,26.20
2024-02-03T12:31:45.879Z,27.20
2024-02-03T12:32:46.847Z,27.00
2024-02-03T12:33:47.799Z,29.20
2024-02-03T12:34:49.004Z,28.50
2024-02-03T12:35:49.387Z,25.00
2024-02-03T12:36:50.312Z,28.10
2024-02-03T12:37:51.194Z,28.70
2024-02-03T12:38:52.063Z,29.10
2024-02-03T12:39:53.041Z,24.40
2024-02-03T12:40:53.909Z,24.80
2024-02-03T12:41:54.772Z,27.50
2024-02-03T12:42:55.685Z,28.60
2024-02-03T12:43:56.545Z,25.50
2024-02-03T12:44:57.561Z,22.40
2024-02-03T12:45:57.959Z,24.40
2024-02-03T12:46:58.819Z,23.80
2024-02-03T12:47:59.763Z,27.40
2024-02-03T12:49:00.776Z,23.80
2024-02-03T12:50:01.475Z,28.10
2024-02-03T12:51:01.921Z,25.80
2024-02-03T12:52:02.792Z,28.40
2024-02-03T12:53:03.667Z,25.90
2024-02-03T12:54:04.558Z,26.00
2024-02-03T12:55:05.471Z,21.40
2024-02-03T12:56:06.357Z,23.10
2024-02-03T12:57:07.233Z,26.10
2024-02-03T12:58:08.146Z,24.50
2024-02-03T12:59:09.001Z,28.00
2024-02-03T13:00:10.023Z,27.80
2024-02-03T13:01:10.551Z,24.00
2024-02-03T13:02:10.956Z,27.80
2024-02-03T13:03:11.990Z,25.30
2024-02-03T13:04:12.415Z,27.50